createdAt,value
2017-11-03T00:01:27.880Z,2.30
2017-11-03T00:03:54.194Z,2.30
2017-11-03T00:06:20.474Z,2.73
2017-11-03T00:08:46.853Z,3.00
2017-11-03T00:11:13.138Z,2.63
2017-11-03T00:13:40.163Z,2.40
2017-11-03T00:16:07.198Z,2.70
2017-11-03T00:18:33.505Z,2.33
2017-11-03T00:20:59.866Z,2.77
2017-11-03T00:23:26.179Z,3.23
2017-11-03T00:25:52.455Z,2.10
2017-11-03T00:28:19.510Z,2.53
2017-11-03T00:30:46.045Z,2.70
2017-11-03T00:33:12.328Z,2.50
2017-11-03T00:35:38.630Z,2.37
2017-11-03T00:38:04.914Z,3.13
2017-11-03T00:40:31.953Z,2.67
2017-11-03T00:42:58.988Z,2.10
2017-11-03T00:45:26.037Z,2.20
2017-11-03T00:47:52.328Z,2.60
2017-11-03T00:50:18.630Z,2.57
2017-11-03T00:52:44.912Z,2.17
2017-11-03T00:55:11.252Z,2.60
2017-11-03T00:57:37.532Z,2.50
2017-11-03T01:00:03.845Z,2.20
2017-11-03T01:02:30.149Z,2.43
2017-11-03T01:04:56.477Z,2.07
2017-11-03T01:07:23.517Z,2.60
2017-11-03T01:09:49.827Z,3.50
2017-11-03T01:12:16.145Z,2.30
2017-11-03T01:14:42.464Z,2.57
2017-11-03T01:17:08.738Z,2.73
2017-11-03T01:19:35.015Z,2.93
2017-11-03T01:22:01.311Z,2.93
2017-11-03T01:24:28.363Z,2.53
2017-11-03T01:26:55.505Z,2.30
2017-11-03T01:29:22.538Z,3.90
2017-11-03T01:31:49.614Z,2.00
2017-11-03T01:34:15.949Z,2.20
2017-11-03T01:36:42.266Z,2.43
2017-11-03T01:39:08.563Z,2.50
2017-11-03T01:41:35.650Z,2.77
2017-11-03T01:44:01.962Z,2.70
2017-11-03T01:46:28.290Z,2.60
2017-11-03T01:48:55.338Z,2.57
2017-11-03T01:51:21.687Z,2.60
2017-11-03T01:53:47.997Z,2.73
2017-11-03T01:56:15.060Z,3.00
2017-11-03T01:58:41.359Z,2.50
2017-11-03T02:01:07.707Z,2.43
2017-11-03T02:03:34.095Z,2.33
2017-11-03T02:06:01.191Z,2.47
2017-11-03T02:08:28.278Z,2.70
2017-11-03T02:10:54.592Z,2.20
2017-11-03T02:13:20.907Z,2.83
2017-11-03T02:15:47.206Z,2.10
2017-11-03T02:18:14.269Z,2.70
2017-11-03T02:20:41.322Z,2.80
2017-11-03T02:23:07.653Z,2.60
2017-11-03T02:25:34.710Z,2.30
2017-11-03T02:28:01.038Z,2.37
2017-11-03T02:30:27.356Z,2.87
2017-11-03T02:32:54.435Z,2.43
2017-11-03T02:35:20.727Z,2.83
2017-11-03T02:37:47.035Z,2.50
2017-11-03T02:40:13.358Z,2.80
2017-11-03T02:42:39.655Z,2.70
2017-11-03T02:45:05.990Z,2.50
2017-11-03T02:47:32.294Z,2.60
2017-11-03T02:49:58.604Z,2.73
2017-11-03T02:52:24.891Z,2.70
2017-11-03T02:54:51.201Z,3.33
2017-11-03T02:57:17.499Z,2.10
2017-11-03T02:59:44.539Z,3.00
2017-11-03T03:02:10.838Z,3.43
2017-11-03T03:04:37.149Z,3.53
2017-11-03T03:07:03.434Z,3.07
2017-11-03T03:09:30.486Z,3.10
2017-11-03T03:11:56.980Z,3.17
2017-11-03T03:14:23.313Z,3.57
2017-11-03T03:16:49.651Z,4.80
2017-11-03T03:19:15.998Z,3.97
2017-11-03T03:21:43.076Z,4.90
2017-11-03T03:24:10.123Z,4.10
2017-11-03T03:26:36.490Z,4.70
2017-11-03T03:29:02.801Z,5.70
2017-11-03T03:31:29.126Z,4.90
2017-11-03T03:33:55.460Z,4.20
2017-11-03T03:36:21.808Z,3.97
2017-11-03T03:38:48.141Z,4.43
2017-11-03T03:41:14.477Z,4.10
2017-11-03T03:43:40.765Z,4.37
2017-11-03T03:46:07.187Z,3.90
2017-11-03T03:48:33.508Z,4.43
2017-11-03T03:51:00.562Z,4.70
2017-11-03T03:53:26.914Z,4.40
2017-11-03T03:55:53.253Z,4.90
2017-11-03T03:58:19.593Z,4.10
2017-11-03T04:00:45.887Z,3.93
2017-11-03T04:03:12.225Z,4.87
2017-11-03T04:05:38.668Z,4.43
2017-11-03T04:08:04.981Z,4.83
2017-11-03T04:10:31.302Z,5.20
2017-11-03T04:12:57.672Z,4.90
2017-11-03T04:15:24.001Z,5.40
2017-11-03T04:17:50.298Z,5.13
2017-11-03T04:20:17.347Z,5.57
2017-11-03T04:22:44.391Z,4.70
2017-11-03T04:25:11.455Z,5.70
2017-11-03T04:27:37.775Z,4.97
2017-11-03T04:30:04.106Z,7.03
2017-11-03T04:32:31.311Z,6.27
2017-11-03T04:34:57.668Z,4.97
2017-11-03T04:37:23.983Z,4.50
2017-11-03T04:39:50.585Z,4.60
2017-11-03T04:42:16.900Z,3.90
2017-11-03T04:44:43.216Z,3.97
2017-11-03T04:47:10.271Z,4.90
2017-11-03T04:49:36.592Z,3.60
2017-11-03T04:52:03.695Z,4.70
2017-11-03T04:54:30.090Z,4.47
2017-11-03T04:56:56.389Z,4.30
2017-11-03T04:59:23.458Z,4.73
2017-11-03T05:01:49.763Z,3.87
2017-11-03T05:04:16.074Z,4.50
2017-11-03T05:06:42.390Z,4.07
2017-11-03T05:09:08.685Z,3.70
2017-11-03T05:11:34.979Z,3.60
2017-11-03T05:14:01.265Z,3.10
2017-11-03T05:16:27.555Z,3.30
2017-11-03T05:18:54.586Z,3.70
2017-11-03T05:21:21.654Z,3.60
2017-11-03T05:23:47.968Z,3.80
2017-11-03T05:26:15.030Z,3.70
2017-11-03T05:28:42.084Z,3.70
2017-11-03T05:31:08.403Z,4.07
2017-11-03T05:33:35.452Z,3.60
2017-11-03T05:36:02.529Z,4.00
2017-11-03T05:38:28.837Z,4.10
2017-11-03T05:40:55.173Z,4.93
2017-11-03T05:43:21.489Z,5.13
2017-11-03T05:45:48.526Z,5.20
2017-11-03T05:48:15.590Z,4.03
2017-11-03T05:50:41.896Z,4.00
2017-11-03T05:53:08.209Z,3.90
2017-11-03T05:55:34.524Z,2.93
2017-11-03T05:58:00.850Z,4.63
2017-11-03T06:00:27.173Z,4.40
2017-11-03T06:02:53.469Z,3.83
2017-11-03T06:05:20.509Z,3.70
2017-11-03T06:07:47.650Z,4.30
2017-11-03T06:10:14.676Z,4.67
2017-11-03T06:12:40.985Z,3.80
2017-11-03T06:15:07.285Z,3.20
2017-11-03T06:17:33.597Z,4.13
2017-11-03T06:20:00.644Z,4.00
2017-11-03T06:22:26.951Z,3.90
2017-11-03T06:24:53.999Z,3.83
2017-11-03T06:27:21.931Z,3.60
2017-11-03T06:29:49.034Z,4.43
2017-11-03T06:32:16.070Z,3.50
2017-11-03T06:34:42.477Z,3.20
2017-11-03T06:37:08.766Z,4.00
2017-11-03T06:39:35.143Z,3.60
2017-11-03T06:42:02.246Z,2.97
2017-11-03T06:44:28.598Z,4.00
2017-11-03T06:46:54.923Z,2.77
2017-11-03T06:49:21.288Z,3.27
2017-11-03T06:51:48.375Z,3.80
2017-11-03T06:54:14.730Z,3.40
2017-11-03T06:56:41.058Z,3.77
2017-11-03T06:59:07.397Z,3.53
2017-11-03T07:01:33.735Z,3.30
2017-11-03T07:04:00.053Z,3.53
2017-11-03T07:06:26.385Z,3.70
2017-11-03T07:08:52.733Z,3.90
2017-11-03T07:11:19.034Z,4.10
2017-11-03T07:13:45.336Z,3.90
2017-11-03T07:16:11.701Z,3.03
2017-11-03T07:18:37.993Z,3.17
2017-11-03T07:21:05.048Z,3.10
2017-11-03T07:23:31.352Z,3.60
2017-11-03T07:25:57.678Z,3.10
2017-11-03T07:28:23.988Z,4.03
2017-11-03T07:30:50.306Z,3.37
2017-11-03T07:33:16.597Z,3.30
2017-11-03T07:35:42.932Z,3.50
2017-11-03T07:38:09.234Z,3.40
2017-11-03T07:40:36.279Z,3.13
2017-11-03T07:43:02.590Z,3.40
2017-11-03T07:45:28.888Z,3.10
2017-11-03T07:47:55.180Z,3.50
2017-11-03T07:50:22.226Z,3.10
2017-11-03T07:52:49.287Z,3.00
2017-11-03T07:55:15.614Z,3.23
2017-11-03T07:57:42.642Z,3.83
2017-11-03T08:00:09.002Z,3.60
2017-11-03T08:02:35.314Z,4.30
2017-11-03T08:05:02.376Z,3.70
2017-11-03T08:07:28.698Z,4.90
2017-11-03T08:09:55.736Z,5.23
2017-11-03T08:12:22.792Z,8.23
2017-11-03T08:14:49.830Z,8.60
2017-11-03T08:17:16.895Z,9.10
2017-11-03T08:19:43.190Z,10.50
2017-11-03T08:22:09.502Z,11.40
2017-11-03T08:24:35.861Z,13.20
2017-11-03T08:27:02.231Z,14.73
2017-11-03T08:29:28.513Z,16.80
2017-11-03T08:31:54.816Z,16.67
2017-11-03T08:34:21.142Z,18.60
2017-11-03T08:36:47.464Z,17.57
2017-11-03T08:39:13.796Z,19.30
2017-11-03T08:41:40.114Z,18.80
2017-11-03T08:44:06.438Z,18.50
2017-11-03T08:46:32.774Z,19.00
2017-11-03T08:48:59.085Z,18.13
2017-11-03T08:51:25.411Z,18.90
2017-11-03T08:53:51.778Z,17.37
2017-11-03T08:56:18.125Z,19.93
2017-11-03T08:58:44.456Z,18.10
2017-11-03T09:01:10.788Z,19.07
2017-11-03T09:03:37.133Z,18.27
2017-11-03T09:06:04.224Z,18.63
2017-11-03T09:08:30.562Z,18.37
2017-11-03T09:10:56.881Z,19.20
2017-11-03T09:13:23.239Z,19.80
2017-11-03T09:15:49.578Z,19.77
2017-11-03T09:18:15.925Z,22.37
2017-11-03T09:20:42.279Z,24.20
2017-11-03T09:23:09.386Z,24.37
2017-11-03T09:25:35.750Z,26.30
2017-11-03T09:28:02.866Z,25.70
2017-11-03T09:30:29.198Z,25.20
2017-11-03T09:32:55.551Z,23.10
2017-11-03T09:35:21.888Z,23.10
2017-11-03T09:37:49.701Z,24.03
2017-11-03T09:40:16.021Z,23.50
2017-11-03T09:42:42.358Z,20.00
2017-11-03T09:45:08.691Z,20.80
2017-11-03T09:47:35.021Z,21.90
2017-11-03T09:50:01.359Z,22.27
2017-11-03T09:52:27.697Z,21.73
2017-11-03T09:54:54.013Z,21.70
2017-11-03T09:57:20.310Z,21.83
2017-11-03T09:59:47.386Z,24.27
2017-11-03T10:02:13.715Z,23.07
2017-11-03T10:04:40.033Z,22.90
2017-11-03T10:07:06.370Z,21.73
2017-11-03T10:09:32.726Z,22.10
2017-11-03T10:11:59.100Z,23.47
2017-11-03T10:14:25.464Z,22.03
2017-11-03T10:16:52.512Z,20.40
2017-11-03T10:19:18.914Z,16.60
2017-11-03T10:21:45.308Z,14.23
2017-11-03T10:24:11.690Z,13.90
2017-11-03T10:26:38.767Z,13.90
2017-11-03T10:29:05.112Z,14.90
2017-11-03T10:31:31.473Z,14.80
2017-11-03T10:33:57.791Z,15.80
2017-11-03T10:36:24.199Z,15.67
2017-11-03T10:38:50.519Z,15.23
2017-11-03T10:41:16.859Z,13.83
2017-11-03T10:43:43.226Z,14.20
2017-11-03T10:46:09.570Z,12.40
2017-11-03T10:48:36.667Z,12.50
2017-11-03T10:51:03.000Z,13.90
2017-11-03T10:53:29.344Z,13.73
2017-11-03T10:55:55.714Z,12.17
2017-11-03T10:58:22.060Z,14.10
2017-11-03T11:00:49.128Z,15.60
2017-11-03T11:03:15.446Z,14.60
2017-11-03T11:05:41.778Z,13.30
2017-11-03T11:08:08.123Z,12.27
2017-11-03T11:10:34.458Z,12.00
2017-11-03T11:13:00.795Z,12.57
2017-11-03T11:15:27.122Z,12.40
2017-11-03T11:17:53.478Z,10.20
2017-11-03T11:20:19.825Z,13.63
2017-11-03T11:22:46.141Z,14.00
2017-11-03T11:25:12.509Z,11.93
2017-11-03T11:27:39.565Z,10.80
2017-11-03T11:30:05.975Z,11.80
2017-11-03T11:32:32.318Z,12.40
2017-11-03T11:34:59.439Z,10.13
2017-11-03T11:37:26.518Z,11.20
2017-11-03T11:39:52.884Z,10.43
2017-11-03T11:42:19.221Z,10.07
2017-11-03T11:44:45.614Z,9.83
2017-11-03T11:47:12.013Z,12.10
2017-11-03T11:49:39.114Z,11.43
2017-11-03T11:52:05.467Z,10.60
2017-11-03T11:54:31.853Z,12.67
2017-11-03T11:56:58.183Z,11.67
2017-11-03T11:59:24.520Z,13.20
2017-11-03T12:01:50.890Z,12.23
2017-11-03T12:04:17.258Z,11.70
2017-11-03T12:06:43.621Z,12.10
2017-11-03T12:09:09.948Z,12.10
2017-11-03T12:11:36.324Z,11.97
2017-11-03T12:14:03.446Z,10.50
2017-11-03T12:16:29.830Z,11.30
2017-11-03T12:18:56.925Z,12.23
2017-11-03T12:21:23.266Z,13.00
2017-11-03T12:23:49.601Z,12.13
2017-11-03T12:26:15.987Z,11.90
2017-11-03T12:28:42.371Z,12.30
2017-11-03T12:31:08.741Z,12.50
2017-11-03T12:33:35.822Z,11.53
2017-11-03T12:36:02.210Z,10.97
2017-11-03T12:38:29.625Z,13.43
2017-11-03T12:40:55.983Z,12.13
2017-11-03T12:43:22.334Z,11.80
2017-11-03T12:45:49.410Z,12.57
2017-11-03T12:48:15.753Z,10.23
2017-11-03T12:50:42.102Z,11.17
2017-11-03T12:53:08.445Z,10.40
2017-11-03T12:55:34.785Z,10.37
2017-11-03T12:58:01.880Z,12.17
2017-11-03T13:00:28.200Z,11.90
2017-11-03T13:02:54.568Z,14.50
2017-11-03T13:05:20.944Z,14.00
2017-11-03T13:07:48.081Z,14.30
2017-11-03T13:10:15.148Z,15.17
2017-11-03T13:12:42.261Z,16.30
2017-11-03T13:15:08.646Z,14.37
2017-11-03T13:17:35.002Z,12.43
2017-11-03T13:20:01.322Z,11.80
2017-11-03T13:22:27.685Z,11.47
2017-11-03T13:24:54.013Z,10.73
2017-11-03T13:27:20.404Z,10.50
2017-11-03T13:29:46.764Z,9.30
2017-11-03T13:32:13.113Z,8.43
2017-11-03T13:34:40.239Z,8.60
2017-11-03T13:37:06.584Z,8.50
2017-11-03T13:39:32.930Z,8.50
2017-11-03T13:41:59.285Z,8.10
2017-11-03T13:44:25.630Z,7.00
2017-11-03T13:46:51.979Z,6.20
2017-11-03T13:49:18.322Z,6.40
2017-11-03T13:51:44.645Z,5.83
2017-11-03T13:54:10.993Z,5.80
2017-11-03T13:56:37.348Z,5.57
2017-11-03T13:59:03.710Z,5.90
2017-11-03T14:01:30.766Z,4.90
2017-11-03T14:03:57.127Z,5.40
2017-11-03T14:06:23.466Z,4.60
2017-11-03T14:08:49.818Z,5.50
2017-11-03T14:11:16.987Z,4.73
2017-11-03T14:13:44.032Z,5.70
2017-11-03T14:16:10.367Z,6.80
2017-11-03T14:18:37.425Z,6.10
2017-11-03T14:21:04.471Z,6.10
2017-11-03T14:23:30.791Z,7.80
2017-11-03T14:25:57.899Z,6.43
2017-11-03T14:28:24.240Z,6.67
2017-11-03T14:30:50.556Z,6.30
2017-11-03T14:33:16.876Z,6.50
2017-11-03T14:35:43.506Z,6.00
2017-11-03T14:38:09.817Z,6.07
2017-11-03T14:40:36.183Z,5.70
2017-11-03T14:43:02.518Z,5.70
2017-11-03T14:45:28.825Z,5.73
2017-11-03T14:47:55.153Z,6.03
2017-11-03T14:50:21.440Z,5.30
2017-11-03T14:52:47.757Z,5.83
2017-11-03T14:55:14.063Z,5.53
2017-11-03T14:57:40.368Z,5.40
2017-11-03T15:00:06.701Z,6.07
2017-11-03T15:02:33.037Z,5.67
2017-11-03T15:04:59.334Z,5.80
2017-11-03T15:07:25.653Z,5.70
2017-11-03T15:09:51.942Z,5.77
2017-11-03T15:12:18.251Z,6.10
2017-11-03T15:14:44.600Z,5.13
2017-11-03T15:17:10.919Z,4.97
2017-11-03T15:19:37.232Z,6.37
2017-11-03T15:22:03.565Z,5.73
2017-11-03T15:24:29.915Z,5.63
2017-11-03T15:26:56.289Z,5.73
2017-11-03T15:29:22.722Z,6.20
2017-11-03T15:31:49.220Z,6.30
2017-11-03T15:34:15.679Z,6.20
2017-11-03T15:36:41.990Z,6.57
2017-11-03T15:39:08.350Z,6.40
2017-11-03T15:41:35.475Z,6.50
2017-11-03T15:44:01.785Z,6.10
2017-11-03T15:46:28.082Z,5.30
2017-11-03T15:48:55.269Z,5.43
2017-11-03T15:51:22.496Z,5.63
2017-11-03T15:53:48.862Z,5.17
2017-11-03T15:56:15.193Z,6.13
2017-11-03T15:58:41.524Z,5.40
2017-11-03T16:01:07.880Z,6.23
2017-11-03T16:03:34.193Z,5.33
2017-11-03T16:06:00.505Z,5.73
2017-11-03T16:08:27.175Z,5.87
2017-11-03T16:10:53.481Z,6.50
2017-11-03T16:13:19.781Z,6.47
2017-11-03T16:15:46.085Z,6.37
2017-11-03T16:18:12.490Z,7.07
2017-11-03T16:20:38.789Z,6.33
2017-11-03T16:23:05.075Z,6.47
2017-11-03T16:25:32.121Z,6.50
2017-11-03T16:27:59.160Z,6.50
2017-11-03T16:30:25.485Z,6.23
2017-11-03T16:32:51.773Z,6.27
2017-11-03T16:35:18.078Z,6.13
2017-11-03T16:37:44.395Z,6.17
2017-11-03T16:40:11.418Z,7.10
2017-11-03T16:42:37.726Z,7.23
2017-11-03T16:45:04.037Z,6.47
2017-11-03T16:47:30.349Z,6.57
2017-11-03T16:49:56.754Z,7.10
2017-11-03T16:52:23.121Z,8.17
2017-11-03T16:54:49.435Z,7.43
2017-11-03T16:57:16.486Z,7.60
2017-11-03T16:59:42.805Z,8.43
2017-11-03T17:02:09.149Z,8.47
2017-11-03T17:04:35.492Z,8.13
2017-11-03T17:07:01.829Z,9.53
2017-11-03T17:09:28.162Z,10.37
2017-11-03T17:11:54.491Z,9.90
2017-11-03T17:14:20.820Z,10.20
2017-11-03T17:16:47.181Z,8.60
2017-11-03T17:19:13.483Z,9.80
2017-11-03T17:21:39.762Z,10.13
2017-11-03T17:24:06.807Z,10.20
2017-11-03T17:26:33.846Z,9.60
2017-11-03T17:29:00.151Z,10.77
2017-11-03T17:31:26.471Z,10.47
2017-11-03T17:33:52.802Z,9.93
2017-11-03T17:36:19.094Z,10.87
2017-11-03T17:38:45.422Z,11.20
2017-11-03T17:41:11.775Z,10.90
2017-11-03T17:43:38.092Z,11.40
2017-11-03T17:46:04.475Z,11.10
2017-11-03T17:48:30.866Z,12.60
2017-11-03T17:50:57.210Z,12.00
2017-11-03T17:53:23.528Z,12.53
2017-11-03T17:55:49.876Z,12.73
2017-11-03T17:58:16.196Z,13.47
2017-11-03T18:00:42.621Z,12.63
2017-11-03T18:03:08.950Z,13.73
2017-11-03T18:05:35.295Z,13.80
2017-11-03T18:08:01.597Z,14.30
2017-11-03T18:10:27.929Z,13.27
2017-11-03T18:12:54.245Z,14.10
2017-11-03T18:15:21.361Z,14.63
2017-11-03T18:17:47.661Z,14.10
2017-11-03T18:20:14.015Z,14.40
2017-11-03T18:22:40.332Z,13.57
2017-11-03T18:25:06.729Z,15.30
2017-11-03T18:27:33.057Z,14.23
2017-11-03T18:29:59.362Z,14.43
2017-11-03T18:32:26.434Z,14.80
2017-11-03T18:34:52.810Z,14.93
2017-11-03T18:37:19.138Z,14.93
2017-11-03T18:39:45.463Z,14.80
2017-11-03T18:42:11.779Z,16.30
2017-11-03T18:44:38.097Z,16.07
2017-11-03T18:47:04.434Z,16.00
2017-11-03T18:49:30.730Z,15.27
2017-11-03T18:51:57.036Z,16.33
2017-11-03T18:54:23.879Z,16.30
2017-11-03T18:56:50.295Z,16.50
2017-11-03T18:59:16.612Z,16.50
2017-11-03T19:01:43.647Z,18.00
2017-11-03T19:04:10.072Z,16.87
2017-11-03T19:06:36.510Z,17.87
2017-11-03T19:09:02.962Z,18.57
2017-11-03T19:11:29.366Z,18.43
2017-11-03T19:13:55.784Z,20.53
2017-11-03T19:16:22.142Z,18.13
2017-11-03T19:18:48.505Z,18.33
2017-11-03T19:21:14.904Z,18.17
2017-11-03T19:23:41.236Z,18.17
2017-11-03T19:26:07.593Z,18.03
2017-11-03T19:28:34.036Z,18.43
2017-11-03T19:31:00.358Z,19.50
2017-11-03T19:33:26.858Z,18.80
2017-11-03T19:35:53.532Z,19.70
2017-11-03T19:38:19.950Z,18.53
2017-11-03T19:40:46.301Z,18.30
2017-11-03T19:43:12.666Z,18.33
2017-11-03T19:45:39.713Z,18.90
2017-11-03T19:48:06.218Z,20.97
2017-11-03T19:50:34.098Z,19.70
2017-11-03T19:53:00.446Z,20.30
2017-11-03T19:55:26.825Z,20.30
2017-11-03T19:57:53.206Z,19.70
2017-11-03T20:00:20.310Z,19.90
2017-11-03T20:02:46.744Z,19.77
2017-11-03T20:05:13.896Z,19.87
2017-11-03T20:07:40.318Z,20.40
2017-11-03T20:10:06.686Z,21.80
2017-11-03T20:12:33.781Z,20.90
2017-11-03T20:15:00.085Z,20.90
2017-11-03T20:17:26.382Z,20.93
2017-11-03T20:19:52.684Z,21.83
2017-11-03T20:22:19.041Z,21.00
2017-11-03T20:24:46.077Z,21.77
2017-11-03T20:27:12.600Z,23.47
2017-11-03T20:29:38.898Z,21.53
2017-11-03T20:32:05.421Z,22.10
2017-11-03T20:34:32.114Z,22.43
2017-11-03T20:36:58.500Z,22.70
2017-11-03T20:39:25.696Z,22.20
2017-11-03T20:41:52.054Z,22.70
2017-11-03T20:44:19.307Z,23.13
2017-11-03T20:46:45.617Z,21.70
2017-11-03T20:49:13.066Z,23.40
2017-11-03T20:51:40.138Z,23.20
2017-11-03T20:54:07.252Z,24.20
2017-11-03T20:56:33.834Z,23.00
2017-11-03T20:59:00.944Z,23.67
2017-11-03T21:01:27.408Z,22.33
2017-11-03T21:03:54.656Z,24.53
2017-11-03T21:06:21.046Z,24.60
2017-11-03T21:08:48.179Z,22.87
2017-11-03T21:11:14.851Z,23.23
2017-11-03T21:13:41.288Z,23.20
2017-11-03T21:16:07.702Z,23.13
2017-11-03T21:18:34.077Z,22.80
2017-11-03T21:21:00.553Z,23.73
2017-11-03T21:23:27.020Z,23.87
2017-11-03T21:25:53.456Z,22.17
2017-11-03T21:28:19.981Z,22.60
2017-11-03T21:30:46.337Z,24.83
2017-11-03T21:33:12.681Z,22.43
2017-11-03T21:35:39.726Z,21.87
2017-11-03T21:38:06.821Z,23.97
2017-11-03T21:40:33.166Z,21.60
2017-11-03T21:42:59.518Z,22.03
2017-11-03T21:45:25.934Z,22.37
2017-11-03T21:47:52.232Z,22.17
2017-11-03T21:50:18.583Z,21.80
2017-11-03T21:52:44.906Z,21.73
2017-11-03T21:55:11.483Z,21.00
2017-11-03T21:57:37.855Z,20.90
2017-11-03T22:00:04.291Z,20.53
2017-11-03T22:02:30.730Z,21.87
2017-11-03T22:04:57.089Z,20.57
2017-11-03T22:07:24.195Z,20.73
2017-11-03T22:09:51.484Z,21.30
2017-11-03T22:12:17.842Z,21.27
2017-11-03T22:14:44.940Z,22.53
2017-11-03T22:17:11.254Z,20.93
2017-11-03T22:19:37.578Z,21.90
2017-11-03T22:22:03.909Z,23.10
2017-11-03T22:24:30.357Z,23.13
2017-11-03T22:26:56.664Z,23.57
2017-11-03T22:29:23.757Z,22.57
2017-11-03T22:31:50.108Z,22.83
2017-11-03T22:34:17.933Z,23.80
2017-11-03T22:36:44.306Z,23.90
2017-11-03T22:39:10.723Z,25.00
2017-11-03T22:41:37.035Z,25.77
2017-11-03T22:44:03.356Z,25.83
2017-11-03T22:46:30.458Z,24.50
2017-11-03T22:48:57.550Z,25.77
2017-11-03T22:51:23.882Z,27.33
2017-11-03T22:53:50.174Z,25.23
2017-11-03T22:56:16.481Z,25.80
2017-11-03T22:58:42.764Z,25.93
2017-11-03T23:01:09.071Z,27.60
2017-11-03T23:03:35.403Z,27.50
2017-11-03T23:06:02.483Z,27.33
2017-11-03T23:08:28.776Z,27.13
2017-11-03T23:10:55.872Z,28.80
2017-11-03T23:13:22.153Z,26.60
2017-11-03T23:15:49.220Z,26.50
2017-11-03T23:18:15.518Z,27.37
2017-11-03T23:20:41.826Z,25.03
2017-11-03T23:23:08.122Z,26.23
2017-11-03T23:25:34.453Z,25.93
2017-11-03T23:28:00.750Z,25.80
2017-11-03T23:30:27.811Z,25.30
2017-11-03T23:32:54.847Z,26.77
2017-11-03T23:35:21.886Z,26.07
2017-11-03T23:37:48.933Z,25.60
2017-11-03T23:40:15.966Z,25.07
2017-11-03T23:42:43.058Z,26.40
2017-11-03T23:45:09.339Z,24.80
2017-11-03T23:47:35.652Z,23.37
2017-11-03T23:50:01.939Z,24.70
2017-11-03T23:52:28.245Z,24.70
2017-11-03T23:54:55.283Z,22.80
2017-11-03T23:57:21.594Z,23.50
2017-11-03T23:59:47.881Z,23.10
